Thief River Falls, MN (56701)

9:21 AM CDT on July 31, 2014 (GMT -0500)
Thief River Falls Regional (KTVF) Elev 1115 ft | 48.06 °N, 96.18 °W | Change Station

Current weather conditions updated 6 minutes ago

Clear
Clear
66 °F
Feels Like 66 °F
N
5
Wind Variable Wind from NW

Today is forecast to be Warmer than yesterday.

Today
High -- | Low -- °F
--% Chance of Precip.
Yesterday
High -- | Low -- °F
Precip. -- in
5:59 AM 9:02 PM
Waxing Crescent, 18% visible
Pressure 30.03 in
Visibility 10.0 miles
Clouds Clear
Dew Point 61 °F
Humidity 83%
Rainfall 0.00 in
Snow Depth Not available.
UV 3 out of 12
Pollen 8.10 out of 12
Air Quality Not available.
Flu Activity Not available.
METAR KTVF 311415Z AUTO 31004KT 10SM CLR 19/16 A3003 RMK AO1

More Conditions Fewer Conditions

Pressure 30.03 in
Visibility 10.0 miles
Clouds Clear
Dew Point 61 °F
Humidity 83%
Rainfall 0.00 in
Snow Depth Not available.
UV 3 out of 12
Pollen 8.10 out of 12
Air Quality Not available.
Flu Activity Not available.
METAR KTVF 311415Z AUTO 31004KT 10SM CLR 19/16 A3003 RMK AO1

More Conditions Fewer Conditions

10-Day Weather Forecast

Almanac

Astronomy

Jul. 31, 2014 Rise Set
Actual Time 5:59 AM CDT 9:02 PM CDT
Civil Twilight 5:22 AM CDT 9:38 PM CDT
Nautical Twilight 4:34 AM CDT 10:25 PM CDT
Astronomical Twilight 3:36 AM CDT 11:23 PM CDT
Moon 10:52 AM CDT 10:48 PM CDT
Length of Visible Light 16h 16m
Length of Day
15h 02m
Tomorrow will be 2m 42s shorter.
Waxing Crescent, 18% of the Moon is Illuminated
Today
Waxing Crescent
Aug 3
First Quarter
Aug 10
Full
Aug 17
Last Quarter
Aug 25
New

Today's Extremes

State Highs State Lows

Community

WunderPhotos

Upload Photos

1,739,330 photos uploaded!

Nearby

Snow Depth

Station Depth Elevation
No new snow has been reported.

Earthquake Activity

City Distance Mag. Time & Date
No recent earthquake activity has been reported nearby.
Minimum magnitude displayed is 2.5.

Coastal Water Temperatures

Place Temperature
No Stations Reporting

Nearby Weather Stations

Station Location Temp. Dew Point Humidity Wind Precip. Elev Updated Type
RAWS AGASSIZ MN, Gatzke, MN 64 °F 62 °F 92% NNW  at  4 mph 0.00 in / hr 919 ft 8:20 AM CDT MADIS
RAWS AGASSIZ PORTABLE MN, Middle River, MN 65 °F 63 °F 93% West  at  2 mph 0.00 in / hr 1147 ft 8:32 AM CDT MADIS
Rural Gentilly, Red Lake Falls, MN 68.2 °F 62 °F 82% NW  at  2.7 mph - / hr 1014 ft 9:08 AM CDT Normal

Show More Stations Show Fewer Stations